Kezdőlap
METAR-TAF:

METAR-TAF

Repülőterek :

Vakkanai, Japán

földrajzi szélesség: 45-24N, földrajzi hosszúság: 141-48E, magasság: 8 m

Jelenlegi meteorológiai megfigyelések

A jelentés 21 perccel ezelõtt készült, 02:00 UTC
Kelet-északkeleti szél 12 kt
Hőmérséklet 9°C
Páratartalom 100%
Légköri nyomás 1006 hPa
Látótávolság: 4900 m
Kevés felhő 200 lábon
Szórványos felhőzet 400 lábon
Szakadozott felhőzet 500 lábon
enyhe záporok, Párásság,

METAR: RJCW 230200Z 07012KT 4900 -SHRA BR FEW002 SCT004 BKN005 09/09 Q1006

Idő: 11:21 (02:21 UTC)


TAF: hiányzik

Meteorológiai megfigyelések és előrejelzések több, mint 4000 repülőtéren (METAR és TAF jelentéseket).

A térképen piros és sárga pontok jelzik az elérhető meteorológiai állomásokat.

Mozgassa az egeret a pont fölött, hogy megjelenjen az állomás neve.

Azután kattintson az időjárási megfigyelések és előrejelzések megtekintéséhez.

A térkép megváltoztatása: kattintson a fekete keresztel jelölt zöld gombra ráközelítéshez, a vonallal jelölt zöld gombra távolításhoz, vagy a zöld nyilakra a szomszédos térképek eléréséhez.


METAR-TAF: